Latest Weather Observations for Cape Naturaliste

IDW60801

Issued at 10:05 pm WST Thursday 24 July 2014 (issued every 30 minutes, with the page automatically refreshed every 10 minutes)

About weather observations | Map of weather stations | Latest weather observations for WA | Other Formats
Station Details ID: 009519 Name: CAPE NATURALISTE Lat: -33.54 Lon: 115.02 Height: 109.0 m
Data from the previous 72 hours. | See also: Recent months at Cape Naturaliste
Date/Time
WST
Temp
°C
App
Temp
°C
Dew
Point
Rel
Hum
%
Delta-T
°C
Wind Press
QNH
hPa
Press
MSL
hPa
Rain
since 9 am
mm
Dir
 
Spd
km/h
Gust
km/h
Spd
kts
Gust
kts
24/10:00pm 13.8 10.8 11.8 88 1.1 NW 19 22 10 12 1019.6 1019.5 3.0
24/09:30pm 13.9 11.3 11.9 88 1.1 NW 17 20 9 11 1019.6 - 3.0
24/09:00pm 14.2 11.7 12.2 88 1.1 NNW 17 20 9 11 1019.7 1019.6 3.0
24/08:30pm 14.1 12.0 12.3 89 1.0 NW 15 17 8 9 1019.7 - 3.0
24/08:00pm 14.2 12.5 12.4 89 1.0 NNW 13 19 7 10 1019.7 1019.6 3.0
24/07:30pm 13.9 11.7 12.1 89 1.0 NNW 15 20 8 11 1019.9 - 3.0
24/07:00pm 13.5 11.2 11.6 88 1.0 NNW 15 17 8 9 1020.0 1019.9 3.0
24/06:30pm 13.2 11.1 11.3 88 1.0 NNW 13 15 7 8 1019.8 - 3.0
24/06:00pm 13.3 11.3 11.4 88 1.0 NNW 13 15 7 8 1019.8 1019.7 3.0
24/05:30pm 13.8 12.2 11.7 87 1.1 WNW 11 13 6 7 1019.6 - 3.0
24/05:00pm 14.5 13.2 12.5 88 1.1 NNW 11 15 6 8 1019.6 1019.5 3.0
24/04:30pm 13.8 11.1 11.7 87 1.1 NNW 17 20 9 11 1019.7 - 3.0
24/04:00pm 14.5 13.0 12.0 85 1.4 WNW 11 13 6 7 1019.7 1019.6 3.0
24/03:30pm 14.0 11.1 11.0 82 1.6 WSW 17 22 9 12 1019.7 - 3.0
24/03:00pm 14.9 12.7 10.9 77 2.1 W 13 19 7 10 1019.6 1019.5 0.8
24/02:40pm 15.4 10.1 10.0 70 2.8 W 28 35 15 19 1019.7 - 0.4
24/02:30pm 16.7 14.4 10.3 66 3.4 WNW 13 17 7 9 1019.5 - 0.0
24/02:00pm 17.6 15.8 10.7 64 3.7 W 11 15 6 8 1019.7 1019.6 0.0
24/01:30pm 17.6 15.2 10.2 62 4.0 W 13 17 7 9 1020.0 - 0.0
24/01:00pm 17.8 15.6 10.7 63 3.8 WSW 13 19 7 10 1020.3 1020.2 0.0
24/12:30pm 17.2 13.8 9.1 59 4.2 WSW 17 20 9 11 1020.8 - 0.0
24/12:00pm 17.6 14.7 9.5 59 4.3 WSW 15 20 8 11 1021.0 1021.0 0.0
24/11:30am 17.4 14.1 9.6 60 4.1 WSW 17 20 9 11 1021.4 - 0.0
24/11:00am 16.7 13.2 8.9 60 4.0 WSW 17 22 9 12 1021.5 1021.5 0.0
24/10:30am 16.4 12.9 8.9 61 3.9 WSW 17 24 9 13 1021.6 - 0.0
24/10:00am 15.7 12.1 8.4 62 3.7 WSW 17 24 9 13 1021.5 1021.5 0.0
24/09:30am 15.2 11.6 8.4 64 3.5 WSW 17 22 9 12 1021.3 - 0.0
24/09:00am 14.3 10.2 7.8 65 3.2 WSW 19 24 10 13 1021.0 1021.0 3.2
24/08:30am 13.4 9.2 7.4 67 2.9 SW 19 26 10 14 1020.8 - 3.2
24/08:00am 12.7 8.8 7.0 68 2.8 SW 17 22 9 12 1020.5 1020.4 3.2
24/07:30am 12.6 7.6 6.4 66 3.0 SW 22 30 12 16 1020.3 - 3.2
24/07:00am 12.7 6.5 6.1 64 3.1 SW 28 37 15 20 1020.2 1020.1 3.2
24/06:30am 13.0 7.3 6.6 65 3.1 SW 26 35 14 19 1020.0 - 3.2
24/06:00am 12.9 7.5 6.5 65 3.1 SW 24 35 13 19 1019.7 1019.6 3.2
24/05:30am 12.8 7.5 6.8 67 2.9 SSW 24 35 13 19 1019.5 - 3.2
24/05:00am 12.8 7.5 6.8 67 2.9 SW 24 35 13 19 1019.3 1019.2 3.2
24/04:30am 13.0 7.4 7.2 68 2.8 SW 26 37 14 20 1019.3 - 3.2
24/04:00am 13.1 6.2 7.3 68 2.8 SW 33 44 18 24 1019.2 1019.1 3.2
24/03:30am 13.2 6.7 8.1 71 2.5 SW 32 43 17 23 1019.1 - 3.2
24/03:00am 13.4 7.5 9.1 75 2.2 SW 30 39 16 21 1019.1 1019.0 3.2
24/02:30am 13.2 6.9 9.1 76 2.1 SW 32 44 17 24 1018.7 - 3.2
24/02:00am 13.3 7.2 9.7 79 1.8 SW 32 41 17 22 1018.5 1018.5 3.2
24/01:30am 14.0 8.5 11.7 86 1.2 SW 32 44 17 24 1018.2 - 3.2
24/01:00am 14.1 9.4 12.0 87 1.1 SW 28 37 15 20 1018.2 1018.2 3.2
24/12:30am 14.2 9.2 12.2 88 1.1 SSW 30 43 16 23 1018.2 - 3.0
24/12:00am 14.2 8.6 12.1 87 1.1 SW 33 48 18 26 1018.4 1018.4 3.0
 
Date/Time
WST
Temp
°C
App
Temp
°C
Dew
Point
Rel
Hum
%
Delta-T
°C
Wind Press
QNH
hPa
Press
MSL
hPa
Rain
since 9 am
mm
Dir
 
Spd
km/h
Gust
km/h
Spd
kts
Gust
kts
23/11:31pm 14.5 7.7 11.8 84 1.5 SW 39 59 21 32 1018.4 - 2.8
23/11:30pm 14.9 8.3 12.6 86 1.3 SW 39 54 21 29 1018.4 - 2.6
23/11:13pm 15.3 9.1 12.6 84 1.5 W 37 57 20 31 1018.3 - 2.4
23/11:00pm 14.9 8.2 12.2 84 1.5 WSW 39 48 21 26 1018.4 1018.4 2.4
23/10:30pm 15.2 9.8 12.3 83 1.6 WSW 32 44 17 24 1018.7 - 2.2
23/10:00pm 14.6 8.9 11.9 84 1.5 WSW 33 44 18 24 1018.8 1018.8 2.0
23/09:30pm 14.0 8.4 11.5 85 1.3 W 32 43 17 23 1018.7 - 2.0
23/09:00pm 14.0 9.0 11.0 82 1.6 W 28 37 15 20 1019.1 1019.0 2.0
23/08:30pm 14.7 9.7 10.9 78 2.0 W 28 37 15 20 1019.0 - 1.6
23/08:00pm 14.2 8.2 10.0 76 2.2 WSW 32 39 17 21 1019.0 1018.9 1.6
23/07:30pm 14.8 9.3 10.4 75 2.3 W 30 37 16 20 1019.0 - 1.6
23/07:00pm 14.5 8.6 10.3 76 2.2 W 32 44 17 24 1019.0 1018.9 1.6
23/06:30pm 14.5 8.4 9.9 74 2.4 W 32 43 17 23 1018.8 - 1.6
23/06:00pm 13.9 8.7 10.3 79 1.9 W 28 33 15 18 1018.7 1018.7 1.6
23/05:30pm 14.1 8.9 10.3 78 2.0 W 28 39 15 21 1018.6 - 1.6
23/05:00pm 14.1 10.3 9.7 75 2.3 WNW 20 28 11 15 1018.6 1018.6 1.6
23/04:30pm 14.5 10.0 10.1 75 2.3 WNW 24 32 13 17 1018.4 - 1.6
23/04:00pm 14.7 11.1 10.5 76 2.2 NW 20 26 11 14 1018.4 1018.4 1.6
23/03:30pm 15.1 11.6 10.9 76 2.2 WNW 20 28 11 15 1018.6 - 1.6
23/03:00pm 15.3 10.5 11.7 79 1.9 WNW 28 37 15 20 1018.4 1018.4 1.6
23/02:30pm 14.7 12.7 11.5 81 1.7 W 13 24 7 13 1018.7 - 1.4
23/02:00pm 13.3 8.5 8.8 74 2.3 WNW 24 35 13 19 1019.0 1018.9 0.4
23/01:30pm 15.7 12.5 10.0 69 3.0 W 17 22 9 12 1019.1 - 0.2
23/01:00pm 14.6 10.3 7.9 64 3.3 W 20 30 11 16 1019.5 1019.4 0.2
23/12:30pm 15.3 10.8 8.5 64 3.5 WSW 22 32 12 17 1019.8 - 0.2
23/12:00pm 15.4 10.4 8.2 62 3.6 W 24 30 13 16 1020.4 1020.3 0.2
23/11:30am 15.6 11.8 9.9 69 3.0 WSW 20 28 11 15 1020.7 - 0.2
23/11:00am 12.9 10.1 8.6 75 2.2 WSW 13 20 7 11 1021.0 1021.0 0.2
23/10:30am 14.1 9.9 9.7 75 2.3 WNW 22 30 12 16 1021.3 - 0.0
23/10:00am 13.4 11.0 8.5 72 2.5 W 11 15 6 8 1021.4 1021.4 0.0
23/09:30am 13.5 10.0 8.6 72 2.5 SW 17 22 9 12 1021.3 - 0.0
23/09:00am 13.1 10.1 9.2 77 2.0 WSW 15 24 8 13 1021.5 1021.5 3.6
23/08:30am 11.6 8.4 8.3 80 1.6 WSW 15 20 8 11 1021.2 - 3.6
23/08:00am 10.6 7.5 7.1 79 1.7 WSW 13 17 7 9 1020.9 1020.9 3.6
23/07:30am 10.9 6.7 7.4 79 1.7 W 19 30 10 16 1020.6 - 3.6
23/07:00am 10.7 6.5 7.4 80 1.6 WNW 19 24 10 13 1020.6 1020.5 3.6
23/06:30am 10.3 6.4 7.0 80 1.6 W 17 20 9 11 1020.5 - 3.4
23/06:00am 9.5 7.3 6.0 79 1.6 SSW 7 11 4 6 1020.3 1020.2 3.4
23/05:30am 10.4 5.9 7.1 80 1.6 WSW 20 24 11 13 1020.4 - 3.4
23/05:00am 10.0 5.5 7.1 82 1.4 WSW 20 28 11 15 1020.4 1020.3 3.4
23/04:30am 9.7 4.9 7.3 85 1.1 WSW 22 33 12 18 1020.5 - 3.4
23/04:00am 9.2 5.6 6.8 85 1.1 SSE 15 19 8 10 1020.7 1020.7 3.4
23/03:30am 9.6 5.7 7.2 85 1.1 SSW 17 24 9 13 1020.9 - 3.4
23/03:00am 10.0 7.0 7.6 85 1.2 SW 13 19 7 10 1020.8 1020.8 3.4
23/02:30am 9.9 5.4 7.0 82 1.4 SSW 20 26 11 14 1021.0 - 2.0
23/02:00am 10.2 6.3 7.1 81 1.5 SSW 17 28 9 15 1020.9 1020.9 1.8
23/01:30am 10.5 4.0 6.6 77 1.8 SW 30 41 16 22 1021.0 - 1.6
23/01:00am 10.7 5.2 5.7 71 2.3 SSW 24 39 13 21 1020.9 1020.9 1.6
23/12:30am 10.8 6.1 5.1 68 2.6 SSW 19 28 10 15 1020.9 - 1.6
23/12:00am 11.1 6.2 5.0 66 2.8 SW 20 28 11 15 1021.0 1021.0 1.6
 
Date/Time
WST
Temp
°C
App
Temp
°C
Dew
Point
Rel
Hum
%
Delta-T
°C
Wind Press
QNH
hPa
Press
MSL
hPa
Rain
since 9 am
mm
Dir
 
Spd
km/h
Gust
km/h
Spd
kts
Gust
kts
22/11:30pm 11.0 5.3 5.1 67 2.7 SW 24 33 13 18 1021.1 - 1.6
22/11:00pm 10.7 5.1 5.5 70 2.4 SSW 24 35 13 19 1021.1 1021.1 1.6
22/10:30pm 10.7 4.6 6.8 77 1.9 SW 28 39 15 21 1021.0 - 1.6
22/10:00pm 10.4 5.3 7.5 82 1.4 SSW 24 28 13 15 1020.9 1020.9 1.6
22/09:30pm 9.7 4.9 7.5 86 1.1 SSW 22 35 12 19 1021.0 - 1.6
22/09:00pm 9.9 4.0 7.7 86 1.1 SSW 28 41 15 22 1020.9 1020.9 1.4
22/08:30pm 9.8 3.8 7.2 84 1.2 SW 28 35 15 19 1020.8 - 0.8
22/08:00pm 10.4 4.0 6.9 79 1.7 S 30 41 16 22 1020.4 1020.3 0.2
22/07:30pm 12.0 6.0 6.9 71 2.5 SSW 28 39 15 21 1020.2 - 0.0
22/07:00pm 12.1 5.6 6.4 68 2.7 SSW 30 43 16 23 1019.7 1019.6 0.0
22/06:30pm 12.2 5.7 4.9 61 3.4 SW 28 39 15 21 1019.2 - 0.0
22/06:00pm 11.9 5.5 5.1 63 3.1 SW 28 43 15 23 1018.8 1018.8 0.0
22/05:31pm 12.3 5.6 5.7 64 3.1 SW 30 48 16 26 1018.4 - 0.0
22/05:30pm 12.3 5.2 5.7 64 3.1 SW 32 48 17 26 1018.3 - 0.0
22/05:09pm 12.4 4.8 5.8 64 3.1 SW 35 54 19 29 1018.0 - 0.0
22/05:00pm 12.4 5.2 5.8 64 3.1 SW 33 44 18 24 1017.9 1017.9 0.0
22/04:30pm 13.0 5.6 6.6 65 3.1 SW 35 48 19 26 1017.6 - 0.0
22/04:00pm 13.0 5.9 6.4 64 3.2 SW 33 48 18 26 1017.3 1017.3 0.0
22/03:30pm 13.8 6.1 6.9 63 3.4 SW 37 48 20 26 1016.9 - 0.0
22/03:00pm 14.2 7.0 7.5 64 3.3 SW 35 50 19 27 1016.6 1016.6 0.0
22/02:30pm 12.8 5.4 6.8 67 2.9 SW 35 48 19 26 1016.4 - 0.0
22/02:00pm 14.2 6.6 7.5 64 3.3 SW 37 52 20 28 1016.2 1016.2 0.0
22/01:30pm 14.6 7.0 7.4 62 3.6 SW 37 48 20 26 1016.1 - 0.0
22/01:01pm 14.1 6.0 7.2 63 3.4 SW 39 57 21 31 1016.0 - 0.0
22/01:00pm 14.0 5.5 6.8 62 3.5 SW 41 57 22 31 1016.1 1016.1 0.0
22/12:30pm 13.5 6.2 7.1 65 3.1 SW 35 56 19 30 1016.1 - 0.0
22/12:05pm 14.5 7.3 7.5 63 3.5 SW 35 54 19 29 1016.3 - 0.0
22/12:00pm 14.5 7.8 8.0 65 3.3 SSW 33 48 18 26 1016.4 1016.4 0.0
22/11:30am 14.3 6.0 7.6 64 3.3 SW 41 59 22 32 1016.4 - 0.0
22/11:26am 13.7 5.2 7.0 64 3.3 SW 41 59 22 32 1016.4 - 0.0
22/11:00am 13.0 5.9 8.1 72 2.4 SW 35 48 19 26 1016.4 1016.4 0.0
22/10:42am 12.3 5.0 7.4 72 2.4 SW 35 54 19 29 1016.5 - 0.0
22/10:30am 13.8 5.5 7.8 67 3.0 SW 41 54 22 29 1016.4 - 0.0
22/10:12am 13.3 4.5 7.3 67 2.9 SW 43 61 23 33 1016.3 - 0.0
22/10:00am 12.8 4.7 7.0 68 2.8 SW 39 56 21 30 1016.2 1016.2 0.0
22/09:38am 12.3 4.8 7.8 74 2.2 SW 37 57 20 31 1015.8 - 0.0
22/09:30am 11.4 2.5 7.5 77 1.9 SSW 44 59 24 32 1015.9 - 0.0
22/09:10am 11.9 3.8 6.8 71 2.4 SW 39 59 21 32 1015.7 - 0.0
22/09:00am 12.4 4.8 7.7 73 2.3 SW 37 52 20 28 1015.7 1015.7 15.6
22/08:40am 11.2 4.0 7.7 79 1.7 SW 35 56 19 30 1015.6 - 15.4
22/08:30am 10.8 3.6 7.7 81 1.5 SW 35 50 19 27 1015.4 - 15.4
22/08:19am 10.8 1.8 7.1 78 1.8 SW 44 63 24 34 1015.1 - 15.4
22/08:00am 10.8 1.5 7.7 81 1.5 SW 46 59 25 32 1014.8 1014.8 15.4
22/07:48am 11.0 3.2 8.4 84 1.3 SW 39 57 21 31 1014.5 - 15.4
22/07:34am 10.1 2.1 7.3 83 1.3 S 39 48 21 26 1014.5 - 15.4
22/07:30am 10.2 3.4 7.6 84 1.3 SW 33 54 18 29 1014.5 - 15.4
22/07:00am 9.5 1.2 5.9 78 1.7 SW 39 57 21 31 1014.4 1014.4 14.0
22/06:41am 11.1 3.4 7.0 76 2.0 SSW 37 56 20 30 1013.8 - 14.0
22/06:30am 10.9 3.5 6.8 76 2.0 SW 35 48 19 26 1013.7 - 14.0
22/06:00am 10.8 2.8 5.8 71 2.3 SW 37 54 20 29 1013.4 1013.4 13.8
22/05:54am 11.5 4.0 6.2 70 2.5 SW 35 54 19 29 1013.3 - 13.8
22/05:30am 11.3 4.0 5.6 68 2.6 SW 33 44 18 24 1013.1 - 13.8
22/05:00am 10.8 4.3 6.6 75 2.0 SSW 30 46 16 25 1013.0 1013.0 13.8
22/04:57am 10.7 4.5 6.3 74 2.1 SSW 28 46 15 25 1013.0 - 13.8
22/04:30am 10.9 3.0 6.3 73 2.2 SW 37 52 20 28 1012.7 - 13.8
22/04:01am 10.2 3.2 6.2 76 1.9 SSW 32 50 17 27 1012.5 - 13.6
22/04:00am 10.1 2.9 6.1 76 1.9 SSW 33 50 18 27 1012.5 1012.4 13.6
22/03:43am 10.3 3.2 5.5 72 2.2 SSW 32 50 17 27 1012.1 - 13.4
22/03:30am 11.1 3.7 6.6 74 2.1 SW 35 48 19 26 1012.1 - 13.4
22/03:00am 11.3 3.7 6.0 70 2.5 SW 35 48 19 26 1011.8 1011.7 13.4
22/02:30am 10.9 4.1 7.0 77 1.9 SSW 32 43 17 23 1011.7 - 13.4
22/02:17am 11.4 4.5 7.3 76 2.0 SW 33 54 18 29 1011.4 - 13.4
22/02:00am 11.1 3.8 7.4 78 1.8 SSW 35 46 19 25 1011.3 1011.2 13.4
22/01:30am 11.2 4.1 7.9 80 1.6 SW 35 54 19 29 1011.1 - 13.2
22/01:28am 11.5 5.0 8.2 80 1.6 SW 32 54 17 29 1011.0 - 13.0
22/01:00am 10.8 4.3 8.2 84 1.3 SSW 32 46 17 25 1011.1 1011.0 13.0
22/12:30am 11.3 4.7 8.7 84 1.3 SW 33 54 18 29 1011.2 - 13.0
22/12:12am 11.0 5.4 8.8 86 1.1 SSW 28 48 15 26 1011.4 - 13.0
22/12:00am 11.0 6.6 8.9 87 1.0 SSW 22 33 12 18 1011.5 1011.4 13.0
 
Date/Time
WST
Temp
°C
App
Temp
°C
Dew
Point
Rel
Hum
%
Delta-T
°C
Wind Press
QNH
hPa
Press
MSL
hPa
Rain
since 9 am
mm
Dir
 
Spd
km/h
Gust
km/h
Spd
kts
Gust
kts
21/11:30pm 10.6 5.7 8.5 87 1.0 SSW 24 35 13 19 1011.4 - 12.6
21/11:00pm 10.6 6.1 8.5 87 1.0 SSW 22 30 12 16 1011.7 1011.6 12.6
21/10:36pm 10.9 2.8 8.8 87 1.0 SW 41 59 22 32 1011.6 - 12.2
21/10:30pm 11.4 3.1 9.3 87 1.1 SW 43 59 23 32 1011.4 - 11.8
21/10:25pm 11.5 4.8 9.6 88 1.0 SW 35 54 19 29 1011.2 - 11.4
21/10:23pm 11.3 5.1 9.2 87 1.1 SW 32 48 17 26 1011.3 - 11.4

Other Formats:

Comma delimited format used in spreadsheet applications
http://www.bom.gov.au/fwo/IDW60801/IDW60801.94600.axf

JavaScript Object Notation format (JSON) in row-major order
http://www.bom.gov.au/fwo/IDW60801/IDW60801.94600.json